sensor_id;sensor_type;location;lat;lon;timestamp;temperature;humidity
46231;DHT22;31949;51.404;-0.038;2022-10-30T00:00:40;16.30;99.90
46231;DHT22;31949;51.404;-0.038;2022-10-30T00:03:11;16.30;99.90
46231;DHT22;31949;51.404;-0.038;2022-10-30T00:05:49;16.30;99.90
46231;DHT22;31949;51.404;-0.038;2022-10-30T00:08:19;16.30;99.90
46231;DHT22;31949;51.404;-0.038;2022-10-30T00:13:50;16.20;99.90
46231;DHT22;31949;51.404;-0.038;2022-10-30T00:16:17;16.10;99.90
46231;DHT22;31949;51.404;-0.038;2022-10-30T00:18:44;16.10;99.90
46231;DHT22;31949;51.404;-0.038;2022-10-30T00:21:14;16.10;99.90
46231;DHT22;31949;51.404;-0.038;2022-10-30T00:23:46;16.10;99.90
46231;DHT22;31949;51.404;-0.038;2022-10-30T00:26:14;16.00;99.90
46231;DHT22;31949;51.404;-0.038;2022-10-30T00:28:42;16.00;99.90
46231;DHT22;31949;51.404;-0.038;2022-10-30T00:31:19;16.10;99.90
46231;DHT22;31949;51.404;-0.038;2022-10-30T00:33:52;16.00;99.90
46231;DHT22;31949;51.404;-0.038;2022-10-30T00:36:22;16.00;99.90
46231;DHT22;31949;51.404;-0.038;2022-10-30T00:38:49;16.00;99.90
46231;DHT22;31949;51.404;-0.038;2022-10-30T00:41:22;16.00;99.90
46231;DHT22;31949;51.404;-0.038;2022-10-30T00:43:50;16.00;99.90
46231;DHT22;31949;51.404;-0.038;2022-10-30T00:46:25;16.00;99.90
46231;DHT22;31949;51.404;-0.038;2022-10-30T00:49:05;16.00;99.90
46231;DHT22;31949;51.404;-0.038;2022-10-30T00:51:36;16.00;99.90
46231;DHT22;31949;51.404;-0.038;2022-10-30T00:54:06;16.10;99.90
46231;DHT22;31949;51.404;-0.038;2022-10-30T00:56:34;16.10;99.90
46231;DHT22;31949;51.404;-0.038;2022-10-30T00:59:07;16.10;99.90
46231;DHT22;31949;51.404;-0.038;2022-10-30T01:01:41;16.00;99.90
46231;DHT22;31949;51.404;-0.038;2022-10-30T01:04:11;16.10;99.90
46231;DHT22;31949;51.404;-0.038;2022-10-30T01:06:40;16.10;99.90
46231;DHT22;31949;51.404;-0.038;2022-10-30T01:09:08;16.00;99.90
46231;DHT22;31949;51.404;-0.038;2022-10-30T01:11:36;16.00;99.90
46231;DHT22;31949;51.404;-0.038;2022-10-30T01:14:06;16.00;99.90
46231;DHT22;31949;51.404;-0.038;2022-10-30T01:28:39;15.90;99.90
46231;DHT22;31949;51.404;-0.038;2022-10-30T01:31:22;15.80;99.90
46231;DHT22;31949;51.404;-0.038;2022-10-30T01:34:08;15.80;99.90
46231;DHT22;31949;51.404;-0.038;2022-10-30T01:36:42;15.80;99.90
46231;DHT22;31949;51.404;-0.038;2022-10-30T01:39:18;15.90;99.90
46231;DHT22;31949;51.404;-0.038;2022-10-30T01:41:53;15.90;99.90
46231;DHT22;31949;51.404;-0.038;2022-10-30T01:44:31;15.90;99.90
46231;DHT22;31949;51.404;-0.038;2022-10-30T01:55:38;15.90;99.90
46231;DHT22;31949;51.404;-0.038;2022-10-30T01:58:32;15.90;99.90
46231;DHT22;31949;51.404;-0.038;2022-10-30T02:01:03;15.90;99.90
46231;DHT22;31949;51.404;-0.038;2022-10-30T02:03:51;15.90;99.90
46231;DHT22;31949;51.404;-0.038;2022-10-30T02:06:19;15.90;99.90
46231;DHT22;31949;51.404;-0.038;2022-10-30T02:08:47;15.90;99.90
46231;DHT22;31949;51.404;-0.038;2022-10-30T02:11:15;15.90;99.90
46231;DHT22;31949;51.404;-0.038;2022-10-30T02:13:46;16.00;99.90
46231;DHT22;31949;51.404;-0.038;2022-10-30T02:16:13;16.00;99.90
46231;DHT22;31949;51.404;-0.038;2022-10-30T02:18:42;16.00;99.90
46231;DHT22;31949;51.404;-0.038;2022-10-30T02:21:12;16.00;99.90
46231;DHT22;31949;51.404;-0.038;2022-10-30T02:23:39;16.00;99.90
46231;DHT22;31949;51.404;-0.038;2022-10-30T02:26:06;16.00;99.90
46231;DHT22;31949;51.404;-0.038;2022-10-30T02:28:33;15.90;99.90
46231;DHT22;31949;51.404;-0.038;2022-10-30T02:31:01;15.90;99.90
46231;DHT22;31949;51.404;-0.038;2022-10-30T02:33:28;15.90;99.90
46231;DHT22;31949;51.404;-0.038;2022-10-30T02:35:55;15.90;99.90
46231;DHT22;31949;51.404;-0.038;2022-10-30T02:38:22;15.90;99.90
46231;DHT22;31949;51.404;-0.038;2022-10-30T02:40:50;15.80;99.90
46231;DHT22;31949;51.404;-0.038;2022-10-30T02:43:17;15.70;99.90
46231;DHT22;31949;51.404;-0.038;2022-10-30T02:45:49;15.70;99.90
46231;DHT22;31949;51.404;-0.038;2022-10-30T02:48:18;15.70;99.90
46231;DHT22;31949;51.404;-0.038;2022-10-30T02:50:46;15.60;99.90
46231;DHT22;31949;51.404;-0.038;2022-10-30T02:53:13;15.60;99.90
46231;DHT22;31949;51.404;-0.038;2022-10-30T02:55:41;15.60;99.90
46231;DHT22;31949;51.404;-0.038;2022-10-30T02:58:08;15.50;99.90
46231;DHT22;31949;51.404;-0.038;2022-10-30T03:00:35;15.50;99.90
46231;DHT22;31949;51.404;-0.038;2022-10-30T03:03:03;15.50;99.90
46231;DHT22;31949;51.404;-0.038;2022-10-30T03:05:30;15.50;99.90
46231;DHT22;31949;51.404;-0.038;2022-10-30T03:07:57;15.40;99.90
46231;DHT22;31949;51.404;-0.038;2022-10-30T03:10:24;15.40;99.90
46231;DHT22;31949;51.404;-0.038;2022-10-30T03:12:52;15.30;99.90
46231;DHT22;31949;51.404;-0.038;2022-10-30T03:15:19;15.30;99.90
46231;DHT22;31949;51.404;-0.038;2022-10-30T03:17:46;15.20;99.90
46231;DHT22;31949;51.404;-0.038;2022-10-30T03:20:15;15.20;99.90
46231;DHT22;31949;51.404;-0.038;2022-10-30T03:22:43;15.20;99.90
46231;DHT22;31949;51.404;-0.038;2022-10-30T03:25:10;15.10;99.90
46231;DHT22;31949;51.404;-0.038;2022-10-30T03:27:37;15.10;99.90
46231;DHT22;31949;51.404;-0.038;2022-10-30T03:30:05;15.00;99.90
46231;DHT22;31949;51.404;-0.038;2022-10-30T03:32:33;15.00;99.90
46231;DHT22;31949;51.404;-0.038;2022-10-30T03:35:00;15.00;99.90
46231;DHT22;31949;51.404;-0.038;2022-10-30T03:37:27;15.00;99.90
46231;DHT22;31949;51.404;-0.038;2022-10-30T03:39:54;15.00;99.90
46231;DHT22;31949;51.404;-0.038;2022-10-30T03:42:22;14.90;99.90
46231;DHT22;31949;51.404;-0.038;2022-10-30T03:44:50;14.90;99.90
46231;DHT22;31949;51.404;-0.038;2022-10-30T03:47:18;14.90;99.90
46231;DHT22;31949;51.404;-0.038;2022-10-30T03:49:45;14.90;99.90
46231;DHT22;31949;51.404;-0.038;2022-10-30T03:52:17;14.90;99.90
46231;DHT22;31949;51.404;-0.038;2022-10-30T03:54:44;14.80;99.90
46231;DHT22;31949;51.404;-0.038;2022-10-30T03:57:14;14.80;99.90
46231;DHT22;31949;51.404;-0.038;2022-10-30T04:00:11;14.80;99.90
46231;DHT22;31949;51.404;-0.038;2022-10-30T04:02:52;14.70;99.90
46231;DHT22;31949;51.404;-0.038;2022-10-30T04:05:21;14.70;99.90
46231;DHT22;31949;51.404;-0.038;2022-10-30T04:07:59;14.70;99.90
46231;DHT22;31949;51.404;-0.038;2022-10-30T04:10:30;14.60;99.90
46231;DHT22;31949;51.404;-0.038;2022-10-30T04:13:03;14.60;99.90
46231;DHT22;31949;51.404;-0.038;2022-10-30T04:15:32;14.60;99.90
46231;DHT22;31949;51.404;-0.038;2022-10-30T04:17:59;14.50;99.90
46231;DHT22;31949;51.404;-0.038;2022-10-30T04:20:28;14.50;99.90
46231;DHT22;31949;51.404;-0.038;2022-10-30T04:23:01;14.50;99.90
46231;DHT22;31949;51.404;-0.038;2022-10-30T04:25:30;14.50;99.90
46231;DHT22;31949;51.404;-0.038;2022-10-30T04:27:59;14.50;99.90
46231;DHT22;31949;51.404;-0.038;2022-10-30T04:30:27;14.50;99.90
46231;DHT22;31949;51.404;-0.038;2022-10-30T04:32:57;14.50;99.90
46231;DHT22;31949;51.404;-0.038;2022-10-30T04:35:27;14.50;99.90
46231;DHT22;31949;51.404;-0.038;2022-10-30T04:38:00;14.50;99.90
46231;DHT22;31949;51.404;-0.038;2022-10-30T04:40:32;14.50;99.90
46231;DHT22;31949;51.404;-0.038;2022-10-30T04:43:03;14.50;99.90
46231;DHT22;31949;51.404;-0.038;2022-10-30T04:45:32;14.50;99.90
46231;DHT22;31949;51.404;-0.038;2022-10-30T04:48:03;14.50;99.90
46231;DHT22;31949;51.404;-0.038;2022-10-30T04:50:31;14.50;99.90
46231;DHT22;31949;51.404;-0.038;2022-10-30T04:53:08;14.50;99.90
46231;DHT22;31949;51.404;-0.038;2022-10-30T04:55:37;14.50;99.90
46231;DHT22;31949;51.404;-0.038;2022-10-30T04:58:04;14.60;99.90
46231;DHT22;31949;51.404;-0.038;2022-10-30T05:00:36;14.50;99.90
46231;DHT22;31949;51.404;-0.038;2022-10-30T05:03:22;14.60;99.90
46231;DHT22;31949;51.404;-0.038;2022-10-30T05:06:00;14.60;99.90
46231;DHT22;31949;51.404;-0.038;2022-10-30T05:08:28;14.60;99.90
46231;DHT22;31949;51.404;-0.038;2022-10-30T05:10:58;14.60;99.90
46231;DHT22;31949;51.404;-0.038;2022-10-30T05:13:27;14.60;99.90
46231;DHT22;31949;51.404;-0.038;2022-10-30T05:15:55;14.60;99.90
46231;DHT22;31949;51.404;-0.038;2022-10-30T05:18:22;14.60;99.90
46231;DHT22;31949;51.404;-0.038;2022-10-30T05:20:50;14.60;99.90
46231;DHT22;31949;51.404;-0.038;2022-10-30T05:23:17;14.60;99.90
46231;DHT22;31949;51.404;-0.038;2022-10-30T05:25:44;14.70;99.90
46231;DHT22;31949;51.404;-0.038;2022-10-30T05:28:13;14.70;99.90
46231;DHT22;31949;51.404;-0.038;2022-10-30T05:30:45;14.70;99.90
46231;DHT22;31949;51.404;-0.038;2022-10-30T05:33:33;14.80;99.90
46231;DHT22;31949;51.404;-0.038;2022-10-30T05:36:00;14.80;99.90
46231;DHT22;31949;51.404;-0.038;2022-10-30T05:38:27;14.80;99.90
46231;DHT22;31949;51.404;-0.038;2022-10-30T05:40:54;14.80;99.90
46231;DHT22;31949;51.404;-0.038;2022-10-30T05:43:22;14.80;99.90
46231;DHT22;31949;51.404;-0.038;2022-10-30T05:45:49;14.80;99.90
46231;DHT22;31949;51.404;-0.038;2022-10-30T05:48:17;14.90;99.90
46231;DHT22;31949;51.404;-0.038;2022-10-30T05:50:45;14.80;99.90
46231;DHT22;31949;51.404;-0.038;2022-10-30T05:53:25;14.90;99.90
46231;DHT22;31949;51.404;-0.038;2022-10-30T05:55:58;14.90;99.90
46231;DHT22;31949;51.404;-0.038;2022-10-30T05:58:30;14.90;99.90
46231;DHT22;31949;51.404;-0.038;2022-10-30T06:01:05;14.90;99.90
46231;DHT22;31949;51.404;-0.038;2022-10-30T06:03:44;14.90;99.90
46231;DHT22;31949;51.404;-0.038;2022-10-30T06:06:12;14.90;99.90
46231;DHT22;31949;51.404;-0.038;2022-10-30T06:08:39;14.90;99.90
46231;DHT22;31949;51.404;-0.038;2022-10-30T06:11:24;15.00;99.90
46231;DHT22;31949;51.404;-0.038;2022-10-30T06:13:54;15.00;99.90
46231;DHT22;31949;51.404;-0.038;2022-10-30T06:16:33;15.10;99.90
46231;DHT22;31949;51.404;-0.038;2022-10-30T06:19:14;15.10;99.90
46231;DHT22;31949;51.404;-0.038;2022-10-30T06:21:47;15.10;99.90
46231;DHT22;31949;51.404;-0.038;2022-10-30T06:24:23;15.10;99.90
46231;DHT22;31949;51.404;-0.038;2022-10-30T06:27:20;15.10;99.90
46231;DHT22;31949;51.404;-0.038;2022-10-30T06:29:47;15.20;99.90
46231;DHT22;31949;51.404;-0.038;2022-10-30T06:32:15;15.20;99.90
46231;DHT22;31949;51.404;-0.038;2022-10-30T06:34:45;15.20;99.90
46231;DHT22;31949;51.404;-0.038;2022-10-30T06:37:14;15.20;99.90
46231;DHT22;31949;51.404;-0.038;2022-10-30T06:39:42;15.20;99.90
46231;DHT22;31949;51.404;-0.038;2022-10-30T06:42:26;15.20;99.90
46231;DHT22;31949;51.404;-0.038;2022-10-30T06:45:12;15.30;99.90
46231;DHT22;31949;51.404;-0.038;2022-10-30T06:47:40;15.30;99.90
46231;DHT22;31949;51.404;-0.038;2022-10-30T06:50:10;15.30;99.90
46231;DHT22;31949;51.404;-0.038;2022-10-30T06:52:38;15.40;99.90
46231;DHT22;31949;51.404;-0.038;2022-10-30T06:55:06;15.50;99.90
46231;DHT22;31949;51.404;-0.038;2022-10-30T06:57:43;15.40;99.90
46231;DHT22;31949;51.404;-0.038;2022-10-30T07:00:29;15.40;99.90
46231;DHT22;31949;51.404;-0.038;2022-10-30T07:03:12;15.30;99.90
46231;DHT22;31949;51.404;-0.038;2022-10-30T07:05:39;15.40;99.90
46231;DHT22;31949;51.404;-0.038;2022-10-30T07:08:06;15.40;99.90
46231;DHT22;31949;51.404;-0.038;2022-10-30T07:10:34;15.40;99.90
46231;DHT22;31949;51.404;-0.038;2022-10-30T07:13:20;15.40;99.90
46231;DHT22;31949;51.404;-0.038;2022-10-30T07:15:53;15.30;99.90
46231;DHT22;31949;51.404;-0.038;2022-10-30T07:18:25;15.30;99.90
46231;DHT22;31949;51.404;-0.038;2022-10-30T07:20:56;15.30;99.90
46231;DHT22;31949;51.404;-0.038;2022-10-30T07:23:24;15.30;99.90
46231;DHT22;31949;51.404;-0.038;2022-10-30T07:25:59;15.20;99.90
46231;DHT22;31949;51.404;-0.038;2022-10-30T07:28:36;15.30;99.90
46231;DHT22;31949;51.404;-0.038;2022-10-30T07:31:22;15.30;99.90
46231;DHT22;31949;51.404;-0.038;2022-10-30T07:34:08;15.30;99.90
46231;DHT22;31949;51.404;-0.038;2022-10-30T07:36:42;15.30;99.90
46231;DHT22;31949;51.404;-0.038;2022-10-30T07:39:21;15.30;99.90
46231;DHT22;31949;51.404;-0.038;2022-10-30T07:42:07;15.30;99.90
46231;DHT22;31949;51.404;-0.038;2022-10-30T07:45:06;15.40;99.90
46231;DHT22;31949;51.404;-0.038;2022-10-30T07:48:15;15.30;99.90
46231;DHT22;31949;51.404;-0.038;2022-10-30T07:50:55;15.30;99.90
46231;DHT22;31949;51.404;-0.038;2022-10-30T07:53:22;15.20;99.90
46231;DHT22;31949;51.404;-0.038;2022-10-30T07:55:49;15.30;99.90
46231;DHT22;31949;51.404;-0.038;2022-10-30T07:58:35;15.30;99.90
46231;DHT22;31949;51.404;-0.038;2022-10-30T08:01:29;15.30;99.90
46231;DHT22;31949;51.404;-0.038;2022-10-30T08:04:05;15.20;99.90
46231;DHT22;31949;51.404;-0.038;2022-10-30T08:06:33;15.20;99.90
46231;DHT22;31949;51.404;-0.038;2022-10-30T08:09:01;15.20;99.90
46231;DHT22;31949;51.404;-0.038;2022-10-30T08:11:28;15.20;99.90
46231;DHT22;31949;51.404;-0.038;2022-10-30T08:13:58;15.20;99.90
46231;DHT22;31949;51.404;-0.038;2022-10-30T08:16:26;15.20;99.90
46231;DHT22;31949;51.404;-0.038;2022-10-30T08:18:53;15.20;99.90
46231;DHT22;31949;51.404;-0.038;2022-10-30T08:21:24;15.30;99.90
46231;DHT22;31949;51.404;-0.038;2022-10-30T08:24:18;15.20;99.90
46231;DHT22;31949;51.404;-0.038;2022-10-30T08:26:50;15.20;99.90
46231;DHT22;31949;51.404;-0.038;2022-10-30T08:29:20;15.30;99.90
46231;DHT22;31949;51.404;-0.038;2022-10-30T08:31:49;15.30;99.90
46231;DHT22;31949;51.404;-0.038;2022-10-30T08:34:22;15.30;99.90
46231;DHT22;31949;51.404;-0.038;2022-10-30T08:36:52;15.40;99.90
46231;DHT22;31949;51.404;-0.038;2022-10-30T08:39:19;15.40;99.90
46231;DHT22;31949;51.404;-0.038;2022-10-30T08:41:59;15.30;99.90
46231;DHT22;31949;51.404;-0.038;2022-10-30T08:44:32;15.30;99.90
46231;DHT22;31949;51.404;-0.038;2022-10-30T08:47:11;15.40;99.90
46231;DHT22;31949;51.404;-0.038;2022-10-30T08:49:39;15.40;99.90
46231;DHT22;31949;51.404;-0.038;2022-10-30T08:52:07;15.40;99.90
46231;DHT22;31949;51.404;-0.038;2022-10-30T08:54:35;15.40;99.90
46231;DHT22;31949;51.404;-0.038;2022-10-30T08:57:02;15.40;99.90
46231;DHT22;31949;51.404;-0.038;2022-10-30T08:59:29;15.40;99.90
46231;DHT22;31949;51.404;-0.038;2022-10-30T09:01:58;15.30;99.90
46231;DHT22;31949;51.404;-0.038;2022-10-30T09:04:48;15.30;99.90
46231;DHT22;31949;51.404;-0.038;2022-10-30T09:07:35;15.30;99.90
46231;DHT22;31949;51.404;-0.038;2022-10-30T09:10:23;15.30;99.90
46231;DHT22;31949;51.404;-0.038;2022-10-30T09:12:58;15.20;99.90
46231;DHT22;31949;51.404;-0.038;2022-10-30T09:15:26;15.20;99.90
46231;DHT22;31949;51.404;-0.038;2022-10-30T09:18:02;15.20;99.90
46231;DHT22;31949;51.404;-0.038;2022-10-30T09:20:30;15.20;99.90
46231;DHT22;31949;51.404;-0.038;2022-10-30T09:22:57;15.10;99.90
46231;DHT22;31949;51.404;-0.038;2022-10-30T09:25:25;15.10;99.90
46231;DHT22;31949;51.404;-0.038;2022-10-30T09:28:11;15.10;99.90
46231;DHT22;31949;51.404;-0.038;2022-10-30T09:31:02;15.00;99.90
46231;DHT22;31949;51.404;-0.038;2022-10-30T09:33:33;15.00;99.90
46231;DHT22;31949;51.404;-0.038;2022-10-30T09:36:32;15.00;99.90
46231;DHT22;31949;51.404;-0.038;2022-10-30T09:38:59;15.10;99.90
46231;DHT22;31949;51.404;-0.038;2022-10-30T09:41:37;15.10;99.90
46231;DHT22;31949;51.404;-0.038;2022-10-30T09:55:33;15.20;99.90
46231;DHT22;31949;51.404;-0.038;2022-10-30T09:58:24;15.10;99.90
46231;DHT22;31949;51.404;-0.038;2022-10-30T10:06:41;15.00;99.90
46231;DHT22;31949;51.404;-0.038;2022-10-30T10:09:19;15.10;99.90
46231;DHT22;31949;51.404;-0.038;2022-10-30T10:14:59;15.10;99.90
46231;DHT22;31949;51.404;-0.038;2022-10-30T10:17:34;15.20;99.90
46231;DHT22;31949;51.404;-0.038;2022-10-30T10:20:03;15.20;99.90
46231;DHT22;31949;51.404;-0.038;2022-10-30T10:24:58;15.20;99.90
46231;DHT22;31949;51.404;-0.038;2022-10-30T10:30:22;15.20;99.90
46231;DHT22;31949;51.404;-0.038;2022-10-30T10:33:09;15.20;99.90
46231;DHT22;31949;51.404;-0.038;2022-10-30T10:36:08;15.30;99.90
46231;DHT22;31949;51.404;-0.038;2022-10-30T10:44:48;15.30;99.90
46231;DHT22;31949;51.404;-0.038;2022-10-30T10:47:30;15.20;99.90
46231;DHT22;31949;51.404;-0.038;2022-10-30T10:50:26;15.20;99.90
46231;DHT22;31949;51.404;-0.038;2022-10-30T10:53:06;15.30;99.90
46231;DHT22;31949;51.404;-0.038;2022-10-30T10:55:37;15.20;99.90
46231;DHT22;31949;51.404;-0.038;2022-10-30T10:58:29;15.20;99.90
46231;DHT22;31949;51.404;-0.038;2022-10-30T11:01:28;15.20;99.90
46231;DHT22;31949;51.404;-0.038;2022-10-30T11:06:43;15.20;99.90
46231;DHT22;31949;51.404;-0.038;2022-10-30T11:09:17;15.20;99.90
46231;DHT22;31949;51.404;-0.038;2022-10-30T11:11:47;15.30;99.90
46231;DHT22;31949;51.404;-0.038;2022-10-30T11:14:18;15.40;99.90
46231;DHT22;31949;51.404;-0.038;2022-10-30T11:17:47;15.40;99.90
46231;DHT22;31949;51.404;-0.038;2022-10-30T11:20:11;15.40;99.90
46231;DHT22;31949;51.404;-0.038;2022-10-30T11:22:43;15.50;99.90
46231;DHT22;31949;51.404;-0.038;2022-10-30T11:25:25;15.50;99.90
46231;DHT22;31949;51.404;-0.038;2022-10-30T11:28:00;15.50;99.90
46231;DHT22;31949;51.404;-0.038;2022-10-30T11:30:29;15.60;99.90
46231;DHT22;31949;51.404;-0.038;2022-10-30T11:32:58;15.60;99.90
46231;DHT22;31949;51.404;-0.038;2022-10-30T11:35:25;15.70;99.90
46231;DHT22;31949;51.404;-0.038;2022-10-30T11:38:17;15.70;99.90
46231;DHT22;31949;51.404;-0.038;2022-10-30T11:40:50;15.70;99.90
46231;DHT22;31949;51.404;-0.038;2022-10-30T11:43:21;15.80;99.90
46231;DHT22;31949;51.404;-0.038;2022-10-30T11:45:49;15.80;99.90
46231;DHT22;31949;51.404;-0.038;2022-10-30T11:48:28;15.80;99.90
46231;DHT22;31949;51.404;-0.038;2022-10-30T11:51:00;15.90;99.90
46231;DHT22;31949;51.404;-0.038;2022-10-30T11:53:49;16.00;99.90
46231;DHT22;31949;51.404;-0.038;2022-10-30T11:56:19;16.00;99.90
46231;DHT22;31949;51.404;-0.038;2022-10-30T11:58:53;16.10;99.90
46231;DHT22;31949;51.404;-0.038;2022-10-30T12:01:33;16.10;99.90
46231;DHT22;31949;51.404;-0.038;2022-10-30T12:04:24;16.10;99.90
46231;DHT22;31949;51.404;-0.038;2022-10-30T12:07:31;16.10;99.90
46231;DHT22;31949;51.404;-0.038;2022-10-30T12:09:59;16.00;99.90
46231;DHT22;31949;51.404;-0.038;2022-10-30T12:12:33;16.00;99.90
46231;DHT22;31949;51.404;-0.038;2022-10-30T12:17:51;15.90;99.90
46231;DHT22;31949;51.404;-0.038;2022-10-30T12:20:18;16.00;99.90
46231;DHT22;31949;51.404;-0.038;2022-10-30T12:22:46;16.00;99.90
46231;DHT22;31949;51.404;-0.038;2022-10-30T12:25:29;16.10;99.90
46231;DHT22;31949;51.404;-0.038;2022-10-30T12:28:03;16.10;99.90
46231;DHT22;31949;51.404;-0.038;2022-10-30T12:30:36;16.20;99.90
46231;DHT22;31949;51.404;-0.038;2022-10-30T12:33:14;16.30;99.90
46231;DHT22;31949;51.404;-0.038;2022-10-30T12:38:29;16.30;99.90
46231;DHT22;31949;51.404;-0.038;2022-10-30T12:43:36;16.40;99.90
46231;DHT22;31949;51.404;-0.038;2022-10-30T12:46:43;16.40;99.90
46231;DHT22;31949;51.404;-0.038;2022-10-30T12:55:38;16.40;99.90
46231;DHT22;31949;51.404;-0.038;2022-10-30T12:58:20;16.50;99.90
46231;DHT22;31949;51.404;-0.038;2022-10-30T13:06:26;16.50;99.90
46231;DHT22;31949;51.404;-0.038;2022-10-30T13:11:50;16.50;99.90
46231;DHT22;31949;51.404;-0.038;2022-10-30T13:14:30;16.50;99.90
46231;DHT22;31949;51.404;-0.038;2022-10-30T13:17:00;16.50;99.90
46231;DHT22;31949;51.404;-0.038;2022-10-30T13:19:27;16.50;99.90
46231;DHT22;31949;51.404;-0.038;2022-10-30T13:22:24;16.50;99.90
46231;DHT22;31949;51.404;-0.038;2022-10-30T13:27:55;16.40;99.90
46231;DHT22;31949;51.404;-0.038;2022-10-30T13:30:27;16.40;99.90
46231;DHT22;31949;51.404;-0.038;2022-10-30T13:33:17;16.50;99.90
46231;DHT22;31949;51.404;-0.038;2022-10-30T13:36:28;16.50;99.90
46231;DHT22;31949;51.404;-0.038;2022-10-30T13:39:06;16.50;99.90
46231;DHT22;31949;51.404;-0.038;2022-10-30T13:41:59;16.40;99.90
46231;DHT22;31949;51.404;-0.038;2022-10-30T13:44:53;16.50;99.90
46231;DHT22;31949;51.404;-0.038;2022-10-30T13:53:14;16.50;99.90
46231;DHT22;31949;51.404;-0.038;2022-10-30T13:55:44;16.50;99.90
46231;DHT22;31949;51.404;-0.038;2022-10-30T14:10:05;16.50;99.90
46231;DHT22;31949;51.404;-0.038;2022-10-30T14:15:35;16.60;99.90
46231;DHT22;31949;51.404;-0.038;2022-10-30T14:20:50;16.70;99.90
46231;DHT22;31949;51.404;-0.038;2022-10-30T14:23:34;16.80;99.90
46231;DHT22;31949;51.404;-0.038;2022-10-30T14:31:08;16.80;99.90
46231;DHT22;31949;51.404;-0.038;2022-10-30T14:36:22;16.70;99.90
46231;DHT22;31949;51.404;-0.038;2022-10-30T14:39:01;16.70;99.90
46231;DHT22;31949;51.404;-0.038;2022-10-30T14:51:11;16.40;99.90
46231;DHT22;31949;51.404;-0.038;2022-10-30T14:59:38;16.30;99.90
46231;DHT22;31949;51.404;-0.038;2022-10-30T15:07:19;16.20;99.90
46231;DHT22;31949;51.404;-0.038;2022-10-30T15:10:05;16.30;99.90
46231;DHT22;31949;51.404;-0.038;2022-10-30T15:13:11;16.30;99.90
46231;DHT22;31949;51.404;-0.038;2022-10-30T15:15:39;16.30;99.90
46231;DHT22;31949;51.404;-0.038;2022-10-30T15:18:20;16.20;99.90
46231;DHT22;31949;51.404;-0.038;2022-10-30T15:21:19;16.20;99.90
46231;DHT22;31949;51.404;-0.038;2022-10-30T15:23:56;16.20;99.90
46231;DHT22;31949;51.404;-0.038;2022-10-30T15:26:31;16.20;99.90
46231;DHT22;31949;51.404;-0.038;2022-10-30T15:29:00;16.20;99.90
46231;DHT22;31949;51.404;-0.038;2022-10-30T15:31:29;16.20;99.90
46231;DHT22;31949;51.404;-0.038;2022-10-30T15:33:56;16.10;99.90
46231;DHT22;31949;51.404;-0.038;2022-10-30T15:36:39;16.00;99.90
46231;DHT22;31949;51.404;-0.038;2022-10-30T15:39:12;16.00;99.90
46231;DHT22;31949;51.404;-0.038;2022-10-30T15:41:49;16.00;99.90
46231;DHT22;31949;51.404;-0.038;2022-10-30T15:44:25;15.90;99.90
46231;DHT22;31949;51.404;-0.038;2022-10-30T15:46:56;15.90;99.90
46231;DHT22;31949;51.404;-0.038;2022-10-30T15:51:58;15.80;99.90
46231;DHT22;31949;51.404;-0.038;2022-10-30T15:54:26;15.80;99.90
46231;DHT22;31949;51.404;-0.038;2022-10-30T15:56:57;15.70;99.90
46231;DHT22;31949;51.404;-0.038;2022-10-30T15:59:50;15.70;99.90
46231;DHT22;31949;51.404;-0.038;2022-10-30T16:02:21;15.70;99.90
46231;DHT22;31949;51.404;-0.038;2022-10-30T16:04:49;15.60;99.90
46231;DHT22;31949;51.404;-0.038;2022-10-30T16:07:20;15.60;99.90
46231;DHT22;31949;51.404;-0.038;2022-10-30T16:09:56;15.60;99.90
46231;DHT22;31949;51.404;-0.038;2022-10-30T16:12:26;15.50;99.90
46231;DHT22;31949;51.404;-0.038;2022-10-30T16:14:55;15.50;99.90
46231;DHT22;31949;51.404;-0.038;2022-10-30T16:17:24;15.50;99.90
46231;DHT22;31949;51.404;-0.038;2022-10-30T16:19:55;15.40;99.90
46231;DHT22;31949;51.404;-0.038;2022-10-30T16:22:27;15.50;99.90
46231;DHT22;31949;51.404;-0.038;2022-10-30T16:24:56;15.50;99.90
46231;DHT22;31949;51.404;-0.038;2022-10-30T16:27:24;15.40;99.90
46231;DHT22;31949;51.404;-0.038;2022-10-30T16:29:56;15.30;99.90
46231;DHT22;31949;51.404;-0.038;2022-10-30T16:32:26;15.30;99.90
46231;DHT22;31949;51.404;-0.038;2022-10-30T16:34:57;15.20;99.90
46231;DHT22;31949;51.404;-0.038;2022-10-30T16:37:35;15.20;99.90
46231;DHT22;31949;51.404;-0.038;2022-10-30T16:40:16;15.20;99.90
46231;DHT22;31949;51.404;-0.038;2022-10-30T16:42:59;15.20;99.90
46231;DHT22;31949;51.404;-0.038;2022-10-30T16:48:07;15.20;99.90
46231;DHT22;31949;51.404;-0.038;2022-10-30T16:50:38;15.20;99.90
46231;DHT22;31949;51.404;-0.038;2022-10-30T16:53:17;15.20;99.90
46231;DHT22;31949;51.404;-0.038;2022-10-30T16:55:49;15.30;99.90
46231;DHT22;31949;51.404;-0.038;2022-10-30T16:58:19;15.20;99.90
46231;DHT22;31949;51.404;-0.038;2022-10-30T17:00:55;15.20;99.90
46231;DHT22;31949;51.404;-0.038;2022-10-30T17:03:23;15.20;99.90
46231;DHT22;31949;51.404;-0.038;2022-10-30T17:06:02;15.10;99.90
46231;DHT22;31949;51.404;-0.038;2022-10-30T17:08:40;15.10;99.90
46231;DHT22;31949;51.404;-0.038;2022-10-30T17:11:18;15.10;99.90
46231;DHT22;31949;51.404;-0.038;2022-10-30T17:14:04;15.10;99.90
46231;DHT22;31949;51.404;-0.038;2022-10-30T17:16:53;15.10;99.90
46231;DHT22;31949;51.404;-0.038;2022-10-30T17:22:00;15.00;99.90
46231;DHT22;31949;51.404;-0.038;2022-10-30T17:24:38;15.00;99.90
46231;DHT22;31949;51.404;-0.038;2022-10-30T17:27:45;15.00;99.90
46231;DHT22;31949;51.404;-0.038;2022-10-30T17:30:34;15.10;99.90
46231;DHT22;31949;51.404;-0.038;2022-10-30T17:33:22;15.00;99.90
46231;DHT22;31949;51.404;-0.038;2022-10-30T17:35:53;15.10;99.90
46231;DHT22;31949;51.404;-0.038;2022-10-30T17:38:25;15.10;99.90
46231;DHT22;31949;51.404;-0.038;2022-10-30T17:40:58;15.00;99.90
46231;DHT22;31949;51.404;-0.038;2022-10-30T17:43:48;15.00;99.90
46231;DHT22;31949;51.404;-0.038;2022-10-30T17:46:16;15.00;99.90
46231;DHT22;31949;51.404;-0.038;2022-10-30T17:48:46;15.00;99.90
46231;DHT22;31949;51.404;-0.038;2022-10-30T17:51:15;15.00;99.90
46231;DHT22;31949;51.404;-0.038;2022-10-30T17:53:45;14.90;99.90
46231;DHT22;31949;51.404;-0.038;2022-10-30T17:56:27;14.80;99.90
46231;DHT22;31949;51.404;-0.038;2022-10-30T17:59:22;14.70;99.90
46231;DHT22;31949;51.404;-0.038;2022-10-30T18:01:52;14.70;99.90
46231;DHT22;31949;51.404;-0.038;2022-10-30T18:04:25;14.60;99.90
46231;DHT22;31949;51.404;-0.038;2022-10-30T18:07:02;14.60;99.90
46231;DHT22;31949;51.404;-0.038;2022-10-30T18:09:30;14.60;99.90
46231;DHT22;31949;51.404;-0.038;2022-10-30T18:11:57;14.50;99.90
46231;DHT22;31949;51.404;-0.038;2022-10-30T18:14:24;14.50;99.90
46231;DHT22;31949;51.404;-0.038;2022-10-30T18:16:51;14.50;99.90
46231;DHT22;31949;51.404;-0.038;2022-10-30T18:19:21;14.40;99.90
46231;DHT22;31949;51.404;-0.038;2022-10-30T18:21:48;14.40;99.90